createdAt,value
2023-01-01T00:02:15.903Z,4.70
2023-01-01T00:07:18.726Z,5.43
2023-01-01T00:12:21.258Z,4.40
2023-01-01T00:17:23.779Z,4.20
2023-01-01T00:27:48.918Z,4.30
2023-01-01T00:32:55.245Z,5.13
2023-01-01T00:37:58.775Z,5.53
2023-01-01T00:43:01.291Z,6.27
2023-01-01T00:48:03.804Z,4.20
2023-01-01T00:53:06.196Z,4.53
2023-01-01T00:58:09.177Z,3.73
2023-01-01T01:03:28.126Z,3.87
2023-01-01T01:08:32.191Z,3.23
2023-01-01T01:13:34.622Z,3.37
2023-01-01T01:18:37.401Z,2.50
2023-01-01T01:23:39.848Z,3.60
2023-01-01T01:28:49.106Z,3.33
2023-01-01T01:33:52.474Z,3.00
2023-01-01T01:38:55.694Z,2.57
2023-01-01T01:44:04.396Z,3.23
2023-01-01T01:49:29.251Z,2.97
2023-01-01T01:54:31.778Z,2.93
2023-01-01T01:59:38.270Z,2.73
2023-01-01T02:04:42.008Z,3.63
2023-01-01T02:09:44.668Z,3.80
2023-01-01T02:14:47.612Z,2.30
2023-01-01T02:20:01.786Z,3.33
2023-01-01T02:25:07.276Z,3.40
2023-01-01T02:30:10.833Z,3.33
2023-01-01T02:35:38.658Z,3.00
2023-01-01T02:40:46.497Z,3.23
2023-01-01T02:45:50.246Z,2.63
2023-01-01T02:50:53.097Z,2.70
2023-01-01T02:56:16.450Z,2.87
2023-01-01T03:01:33.577Z,2.53
2023-01-01T03:06:43.077Z,3.17
2023-01-01T03:12:10.829Z,2.87
2023-01-01T03:17:54.708Z,2.77
2023-01-01T03:23:02.752Z,2.60
2023-01-01T03:28:37.618Z,2.80
2023-01-01T03:33:45.044Z,2.67
2023-01-01T03:39:02.224Z,2.37
2023-01-01T03:44:11.982Z,3.37
2023-01-01T03:49:15.364Z,3.20
2023-01-01T03:54:38.274Z,3.07
2023-01-01T03:59:49.928Z,2.67
2023-01-01T04:04:52.571Z,2.50
2023-01-01T04:09:58.007Z,2.67
2023-01-01T04:15:01.115Z,3.50
2023-01-01T04:20:04.165Z,3.47
2023-01-01T04:25:07.954Z,2.73
2023-01-01T04:30:12.785Z,3.47
2023-01-01T04:35:15.823Z,5.00
2023-01-01T04:40:18.433Z,3.03
2023-01-01T04:45:20.860Z,4.00
2023-01-01T04:50:23.298Z,4.20
2023-01-01T04:55:25.793Z,5.43
2023-01-01T05:00:28.296Z,5.27
2023-01-01T05:05:30.724Z,4.47
2023-01-01T05:10:33.144Z,5.63
2023-01-01T05:15:37.264Z,4.73
2023-01-01T05:20:39.816Z,3.87
2023-01-01T05:25:42.244Z,3.23
2023-01-01T05:30:45.993Z,3.37
2023-01-01T05:35:54.738Z,4.63
2023-01-01T05:40:57.797Z,3.00
2023-01-01T05:46:05.601Z,2.80
2023-01-01T05:51:13.425Z,2.23
2023-01-01T05:56:16.897Z,3.47
2023-01-01T06:01:21.146Z,3.33
2023-01-01T06:06:26.791Z,2.40
2023-01-01T06:11:30.576Z,2.83
2023-01-01T06:16:33.233Z,2.60
2023-01-01T06:21:35.830Z,2.83
2023-01-01T06:26:39.045Z,2.53
2023-01-01T06:31:41.504Z,3.00
2023-01-01T06:36:43.975Z,2.60
2023-01-01T06:41:46.550Z,3.17
2023-01-01T06:46:49.036Z,2.57
2023-01-01T06:51:51.560Z,3.00
2023-01-01T06:56:54.040Z,2.87
2023-01-01T07:01:56.554Z,3.00
2023-01-01T07:07:01.313Z,2.80
2023-01-01T07:12:03.975Z,3.20
2023-01-01T07:17:06.445Z,2.80
2023-01-01T07:22:10.896Z,3.37
2023-01-01T07:27:13.317Z,3.57
2023-01-01T07:32:15.815Z,3.07
2023-01-01T07:37:18.327Z,2.43
2023-01-01T07:42:20.873Z,2.80
2023-01-01T07:47:25.471Z,3.20
2023-01-01T07:52:27.937Z,3.00
2023-01-01T07:57:30.298Z,2.60
2023-01-01T08:02:33.069Z,3.47
2023-01-01T08:07:35.591Z,3.27
2023-01-01T08:12:38.007Z,3.70
2023-01-01T08:17:46.173Z,2.87
2023-01-01T08:22:49.564Z,2.90
2023-01-01T08:27:52.056Z,3.23
2023-01-01T08:32:54.451Z,3.53
2023-01-01T08:37:56.893Z,2.40
2023-01-01T08:42:59.353Z,3.50
2023-01-01T08:48:01.926Z,2.90
2023-01-01T08:53:04.857Z,3.20
2023-01-01T08:58:07.751Z,3.37
2023-01-01T09:03:10.473Z,1.47
2023-01-01T09:08:17.755Z,2.57
2023-01-01T09:13:21.803Z,1.90
2023-01-01T09:18:24.264Z,2.03
2023-01-01T09:23:26.751Z,1.20
2023-01-01T09:28:29.642Z,2.60
2023-01-01T09:33:35.377Z,1.87
2023-01-01T09:38:37.876Z,2.60
2023-01-01T09:43:53.725Z,3.30
2023-01-01T09:49:02.967Z,2.63
2023-01-01T09:54:16.140Z,2.80
2023-01-01T09:59:18.604Z,1.90
2023-01-01T10:04:42.267Z,2.50
2023-01-01T10:09:59.526Z,1.03
2023-01-01T10:15:16.089Z,2.90
2023-01-01T10:20:21.143Z,2.50
2023-01-01T10:25:27.208Z,2.63
2023-01-01T10:30:30.687Z,1.70
2023-01-01T10:35:45.683Z,1.80
2023-01-01T10:40:48.618Z,2.63
2023-01-01T10:45:54.911Z,2.43
2023-01-01T10:50:57.458Z,1.73
2023-01-01T10:56:12.326Z,2.20
2023-01-01T11:01:27.584Z,2.43
2023-01-01T11:06:38.665Z,2.90
2023-01-01T11:11:46.477Z,2.80
2023-01-01T11:16:49.908Z,2.17
2023-01-01T11:21:52.461Z,2.43
2023-01-01T11:27:11.706Z,3.13
2023-01-01T11:32:23.750Z,3.17
2023-01-01T11:37:36.232Z,3.40
2023-01-01T11:42:58.505Z,2.33
2023-01-01T11:48:12.423Z,2.60
2023-01-01T11:53:23.694Z,1.90
2023-01-01T11:58:38.193Z,3.03
2023-01-01T12:03:40.758Z,3.03
2023-01-01T12:08:51.799Z,2.20
2023-01-01T12:14:00.242Z,2.87
2023-01-01T12:19:10.108Z,2.67
2023-01-01T12:24:13.009Z,2.37
2023-01-01T12:29:29.600Z,2.43
2023-01-01T12:35:00.001Z,3.20
2023-01-01T12:40:32.284Z,3.40
2023-01-01T12:45:58.908Z,3.97
2023-01-01T12:51:19.234Z,3.93
2023-01-01T12:56:24.815Z,4.00
2023-01-01T13:01:36.218Z,3.80
2023-01-01T13:06:41.535Z,3.40
2023-01-01T13:12:04.449Z,3.90
2023-01-01T13:17:25.659Z,4.57
2023-01-01T13:22:28.096Z,3.47
2023-01-01T13:28:00.427Z,4.30
2023-01-01T13:33:26.319Z,3.40
2023-01-01T13:38:48.497Z,3.93
2023-01-01T13:43:51.900Z,3.37
2023-01-01T13:49:15.888Z,3.37
2023-01-01T13:54:41.584Z,3.70
2023-01-01T13:59:53.244Z,3.80
2023-01-01T14:05:18.690Z,3.17
2023-01-01T14:10:49.447Z,3.43
2023-01-01T14:15:58.939Z,3.50
2023-01-01T14:21:02.345Z,3.43
2023-01-01T14:26:11.994Z,2.90
2023-01-01T14:31:24.191Z,3.03
2023-01-01T14:36:29.113Z,3.17
2023-01-01T14:41:40.033Z,3.97
2023-01-01T14:46:47.273Z,3.80
2023-01-01T14:52:24.082Z,3.50
2023-01-01T14:57:31.501Z,3.07
2023-01-01T15:02:38.533Z,4.43
2023-01-01T15:07:41.856Z,3.63
2023-01-01T15:12:44.343Z,3.77
2023-01-01T15:17:47.713Z,3.43
2023-01-01T15:22:52.344Z,4.57
2023-01-01T15:27:55.851Z,3.20
2023-01-01T15:33:14.743Z,3.30
2023-01-01T15:38:26.134Z,3.50
2023-01-01T15:43:30.878Z,4.37
2023-01-01T15:48:37.880Z,4.67
2023-01-01T15:53:52.594Z,4.60
2023-01-01T15:58:56.479Z,6.43
2023-01-01T16:04:10.678Z,8.43
2023-01-01T16:09:14.647Z,10.10
2023-01-01T16:14:17.111Z,10.50
2023-01-01T16:19:22.639Z,10.00
2023-01-01T16:24:25.574Z,11.63
2023-01-01T16:29:28.611Z,7.90
2023-01-01T16:34:35.779Z,10.97
2023-01-01T16:39:38.296Z,8.77
2023-01-01T16:44:44.148Z,5.87
2023-01-01T16:49:46.549Z,15.50
2023-01-01T16:54:49.019Z,13.07
2023-01-01T16:59:51.536Z,8.43
2023-01-01T17:04:54.054Z,14.47
2023-01-01T17:09:56.991Z,14.57
2023-01-01T17:14:59.446Z,15.93
2023-01-01T17:20:02.224Z,15.30
2023-01-01T17:25:05.190Z,14.37
2023-01-01T17:30:08.284Z,16.77
2023-01-01T17:35:10.814Z,17.63
2023-01-01T17:40:13.473Z,16.63
2023-01-01T17:45:16.955Z,14.57
2023-01-01T17:50:19.830Z,13.30
2023-01-01T17:55:22.705Z,13.73
2023-01-01T18:00:25.322Z,14.87
2023-01-01T18:05:27.794Z,14.80
2023-01-01T18:10:31.197Z,16.77
2023-01-01T18:15:37.193Z,16.73
2023-01-01T18:20:41.419Z,17.97
2023-01-01T18:25:43.936Z,21.03
2023-01-01T18:30:46.855Z,19.20
2023-01-01T18:35:49.502Z,17.63
2023-01-01T18:41:20.298Z,20.70
2023-01-01T18:46:23.548Z,17.73
2023-01-01T18:51:26.743Z,11.23
2023-01-01T18:56:31.474Z,15.63
2023-01-01T19:01:34.239Z,12.93
2023-01-01T19:06:36.879Z,11.93
2023-01-01T19:11:39.418Z,14.53
2023-01-01T19:16:42.469Z,12.10
2023-01-01T19:21:51.496Z,13.37
2023-01-01T19:27:12.320Z,12.00
2023-01-01T19:32:15.472Z,13.97
2023-01-01T19:37:17.964Z,15.47
2023-01-01T19:42:20.637Z,13.30
2023-01-01T19:47:23.152Z,15.97
2023-01-01T19:52:25.684Z,17.37
2023-01-01T19:57:28.393Z,17.90
2023-01-01T20:02:47.715Z,25.80
2023-01-01T20:07:51.193Z,31.20
2023-01-01T20:12:53.830Z,50.37
2023-01-01T20:17:56.500Z,49.90
2023-01-01T20:22:59.020Z,27.33
2023-01-01T20:28:19.952Z,21.37
2023-01-01T20:33:22.579Z,19.53
2023-01-01T20:38:25.068Z,16.93
2023-01-01T20:43:27.522Z,18.17
2023-01-01T20:48:29.983Z,17.27
2023-01-01T20:53:32.578Z,17.37
2023-01-01T20:58:35.341Z,22.57
2023-01-01T21:03:37.804Z,36.17
2023-01-01T21:08:40.316Z,34.93
2023-01-01T21:13:46.389Z,21.53
2023-01-01T21:18:49.676Z,16.90
2023-01-01T21:23:57.252Z,20.80
2023-01-01T21:29:00.734Z,26.13
2023-01-01T21:34:20.634Z,27.27
2023-01-01T21:39:29.192Z,31.97
2023-01-01T21:44:31.620Z,34.53
2023-01-01T21:49:36.787Z,35.77
2023-01-01T21:54:39.597Z,35.07
2023-01-01T21:59:47.313Z,29.33
2023-01-01T22:04:51.138Z,22.53
2023-01-01T22:10:24.361Z,17.97
2023-01-01T22:15:43.936Z,17.10
2023-01-01T22:20:47.565Z,15.60
2023-01-01T22:25:50.784Z,16.50
2023-01-01T22:30:58.026Z,15.97
2023-01-01T22:36:00.904Z,14.87
2023-01-01T22:41:03.921Z,17.47
2023-01-01T22:46:32.909Z,10.23
2023-01-01T22:51:44.777Z,7.17
2023-01-01T22:57:02.851Z,10.17
2023-01-01T23:02:06.693Z,8.97
2023-01-01T23:07:14.340Z,10.47
2023-01-01T23:12:17.086Z,12.07
2023-01-01T23:17:19.661Z,14.83
2023-01-01T23:22:22.196Z,12.33
2023-01-01T23:27:24.900Z,13.67
2023-01-01T23:32:27.930Z,10.47
2023-01-01T23:37:30.511Z,9.90
2023-01-01T23:42:33.025Z,12.50
2023-01-01T23:47:35.676Z,13.97
2023-01-01T23:52:38.646Z,10.77
2023-01-01T23:57:41.202Z,12.60
